Time;durP1;ratioP1;P1;durP2;ratioP2;P2;SDS_P1;SDS_P2;PMS_P1;PMS_P2;Temp;Humidity;BMP_temperature;BMP_pressure;BME280_temperature;BME280_humidity;BME280_pressure;Samples;Min_cycle;Max_cycle;Signal;HPM_P1;HPM_P2
2021/07/17 00:00:52;;;;;;;22.67;13.87;;;17.80;99.90;;;;;;4998898;28;20472;-63
2021/07/17 00:03:19;;;;;;;24.17;14.07;;;17.70;99.90;;;;;;4992471;28;20755;-63
2021/07/17 00:05:46;;;;;;;22.67;14.63;;;17.60;99.90;;;;;;4995068;28;20497;-63
2021/07/17 00:08:14;;;;;;;16.23;13.73;;;17.60;99.90;;;;;;4998146;28;20598;-63
2021/07/17 00:10:46;;;;;;;17.43;13.83;;;17.70;99.90;;;;;;4998676;28;20896;-63
2021/07/17 00:13:13;;;;;;;26.23;14.47;;;17.60;99.90;;;;;;4998826;28;20457;-63
2021/07/17 00:15:41;;;;;;;24.37;15.50;;;17.60;99.90;;;;;;4998026;28;20570;-63
2021/07/17 00:18:09;;;;;;;23.70;14.57;;;17.60;99.90;;;;;;4997570;28;20484;-63
2021/07/17 00:20:36;;;;;;;23.60;14.13;;;17.70;99.90;;;;;;4998377;28;20916;-63
2021/07/17 00:23:03;;;;;;;23.17;14.90;;;17.60;99.90;;;;;;4998234;28;20883;-63
2021/07/17 00:25:33;;;;;;;24.27;13.97;;;17.60;99.90;;;;;;4998258;28;20489;-63
2021/07/17 00:28:01;;;;;;;22.17;15.33;;;17.60;99.90;;;;;;4997706;28;20472;-63
2021/07/17 00:30:28;;;;;;;29.73;14.37;;;17.60;99.90;;;;;;4998072;28;20472;-63
2021/07/17 00:32:58;;;;;;;21.47;14.70;;;17.60;99.90;;;;;;4998186;28;20471;-63
2021/07/17 00:35:26;;;;;;;23.47;15.70;;;17.60;99.90;;;;;;4998134;28;20805;-63
2021/07/17 00:37:53;;;;;;;26.27;15.00;;;17.60;99.90;;;;;;4997916;28;20469;-63
2021/07/17 00:40:21;;;;;;;28.37;16.47;;;17.50;99.90;;;;;;4996600;28;20473;-63
2021/07/17 00:42:49;;;;;;;22.93;16.07;;;17.60;99.90;;;;;;4997699;28;20458;-63
2021/07/17 00:45:17;;;;;;;25.03;15.67;;;17.50;99.90;;;;;;4996164;28;20780;-63
2021/07/17 00:47:44;;;;;;;23.80;17.13;;;17.50;99.90;;;;;;4994467;28;20491;-63
2021/07/17 00:50:13;;;;;;;22.70;14.90;;;17.50;99.90;;;;;;4992827;28;20535;-63
2021/07/17 00:52:44;;;;;;;23.80;15.30;;;17.50;99.90;;;;;;4997817;28;20468;-63
2021/07/17 00:55:12;;;;;;;25.80;16.03;;;17.50;99.90;;;;;;4997592;28;20556;-63
2021/07/17 00:57:41;;;;;;;26.30;15.67;;;17.50;99.90;;;;;;4998069;28;20460;-63
2021/07/17 01:00:10;;;;;;;27.07;18.10;;;17.50;99.90;;;;;;4997461;28;20495;-63
2021/07/17 01:02:40;;;;;;;25.37;17.00;;;17.50;99.90;;;;;;4998276;28;20469;-63
2021/07/17 01:05:09;;;;;;;22.90;16.63;;;17.50;99.90;;;;;;4993344;28;20501;-63
2021/07/17 01:07:36;;;;;;;27.70;17.40;;;17.50;99.90;;;;;;4994981;28;20989;-63
2021/07/17 01:10:07;;;;;;;26.57;17.50;;;17.50;99.90;;;;;;4997556;28;20462;-63
2021/07/17 01:12:34;;;;;;;22.57;17.33;;;17.50;99.90;;;;;;4997196;28;20472;-63
2021/07/17 01:15:09;;;;;;;25.97;16.53;;;17.40;99.90;;;;;;4997602;28;20427;-63
2021/07/17 01:17:36;;;;;;;27.83;16.43;;;17.50;99.90;;;;;;4997739;28;20468;-63
2021/07/17 01:20:07;;;;;;;31.10;17.37;;;17.50;99.90;;;;;;4997526;28;20881;-63
2021/07/17 01:22:36;;;;;;;25.33;16.27;;;17.40;99.90;;;;;;4997907;28;20928;-63
2021/07/17 01:25:06;;;;;;;25.40;17.03;;;17.50;99.90;;;;;;4996997;28;20467;-63
2021/07/17 01:27:33;;;;;;;28.00;17.20;;;17.40;99.90;;;;;;4998107;28;20465;-63
2021/07/17 01:30:02;;;;;;;26.20;16.03;;;17.40;99.90;;;;;;5000994;28;20825;-63
2021/07/17 01:32:29;;;;;;;25.23;16.57;;;17.40;99.90;;;;;;5001210;28;20523;-63
2021/07/17 01:34:57;;;;;;;23.17;17.13;;;17.40;99.90;;;;;;5001600;28;20443;-63
2021/07/17 01:37:23;;;;;;;23.53;17.70;;;17.40;99.90;;;;;;5001330;28;20492;-63
2021/07/17 01:40:04;;;;;;;23.57;17.13;;;17.40;99.90;;;;;;5001337;28;20885;-63
2021/07/17 01:42:36;;;;;;;23.93;18.43;;;17.40;99.90;;;;;;4982173;28;20472;-63
2021/07/17 01:45:04;;;;;;;25.03;18.33;;;17.50;99.90;;;;;;4981794;28;20591;-63
2021/07/17 01:47:31;;;;;;;22.47;17.73;;;17.40;99.90;;;;;;4998748;28;20469;-63
2021/07/17 01:49:59;;;;;;;29.40;19.07;;;17.40;99.90;;;;;;5000748;28;20472;-63
2021/07/17 01:52:26;;;;;;;29.40;18.80;;;17.40;99.90;;;;;;5000867;28;20527;-63
2021/07/17 01:54:55;;;;;;;35.67;19.67;;;17.40;99.90;;;;;;5001239;28;20777;-63
2021/07/17 01:57:23;;;;;;;27.50;18.70;;;17.30;99.90;;;;;;5001102;28;20457;-63
2021/07/17 01:59:52;;;;;;;29.50;19.10;;;17.40;99.90;;;;;;5000546;28;20567;-63
2021/07/17 02:02:19;;;;;;;33.57;19.63;;;17.30;99.90;;;;;;5000792;28;20470;-63
2021/07/17 02:04:46;;;;;;;28.67;19.63;;;17.30;99.90;;;;;;4986565;28;20508;-63
2021/07/17 02:07:13;;;;;;;28.63;18.77;;;17.20;99.90;;;;;;5000822;28;20456;-63
2021/07/17 02:09:43;;;;;;;22.83;18.97;;;17.20;99.90;;;;;;5000601;28;20465;-63
2021/07/17 02:12:16;;;;;;;27.33;19.10;;;17.20;99.90;;;;;;5000380;28;20439;-63
2021/07/17 02:14:49;;;;;;;33.23;21.33;;;17.20;99.90;;;;;;5000679;28;20809;-63
2021/07/17 02:17:16;;;;;;;27.13;20.60;;;17.20;99.90;;;;;;5000972;28;20769;-63
2021/07/17 02:19:43;;;;;;;31.60;21.50;;;17.20;99.90;;;;;;5000385;28;20475;-63
2021/07/17 02:22:12;;;;;;;33.40;21.60;;;17.20;99.90;;;;;;5000090;28;20460;-63
2021/07/17 02:24:39;;;;;;;30.23;21.43;;;17.20;99.90;;;;;;5000038;28;20964;-63
2021/07/17 02:27:06;;;;;;;36.13;21.60;;;17.20;99.90;;;;;;5000084;28;20511;-63
2021/07/17 02:29:34;;;;;;;30.90;21.43;;;17.20;99.90;;;;;;5000486;28;20464;-63
2021/07/17 02:32:02;;;;;;;36.63;21.50;;;17.20;99.90;;;;;;5000043;28;20472;-63
2021/07/17 02:34:29;;;;;;;34.17;21.33;;;17.10;99.90;;;;;;4980790;28;20462;-63
2021/07/17 02:36:56;;;;;;;33.47;21.10;;;17.10;99.90;;;;;;4980341;28;20489;-63
2021/07/17 02:39:23;;;;;;;35.57;23.20;;;17.10;99.90;;;;;;4991179;28;20461;-63
2021/07/17 03:18:43;;;;;;;48.77;28.83;;;16.90;99.90;;;;;;3463508;23;20575;-62
2021/07/17 03:21:10;;;;;;;38.20;29.03;;;16.90;99.90;;;;;;4999949;28;20948;-63
2021/07/17 03:23:37;;;;;;;36.50;27.70;;;16.90;99.90;;;;;;4999214;28;20523;-63
2021/07/17 03:26:04;;;;;;;37.63;28.73;;;16.90;99.90;;;;;;4999454;28;20501;-63
2021/07/17 03:28:31;;;;;;;43.90;29.00;;;16.90;99.90;;;;;;4999073;28;20559;-63
2021/07/17 03:30:59;;;;;;;40.50;28.03;;;16.90;99.90;;;;;;4999251;28;20531;-63
2021/07/17 03:33:26;;;;;;;42.07;26.53;;;16.90;99.90;;;;;;4999114;28;20464;-63
2021/07/17 03:35:54;;;;;;;41.77;26.20;;;17.00;99.90;;;;;;4999361;28;20531;-63
2021/07/17 03:38:21;;;;;;;33.50;24.47;;;16.90;99.90;;;;;;4998723;28;20756;-63
2021/07/17 03:40:48;;;;;;;34.30;24.70;;;16.80;99.90;;;;;;4998721;28;20469;-63
2021/07/17 03:43:15;;;;;;;37.73;26.17;;;16.80;99.90;;;;;;4999059;28;20523;-63
2021/07/17 03:45:43;;;;;;;31.63;24.70;;;16.80;99.90;;;;;;4991011;28;20496;-63
2021/07/17 03:48:10;;;;;;;32.03;25.77;;;16.80;99.90;;;;;;4998784;28;20907;-63
2021/07/17 03:50:37;;;;;;;39.30;24.40;;;16.80;99.90;;;;;;4999102;28;20519;-63
2021/07/17 03:53:06;;;;;;;31.70;25.33;;;16.80;99.90;;;;;;4998900;28;20465;-63
2021/07/17 03:55:33;;;;;;;28.50;22.57;;;16.80;99.90;;;;;;4998913;28;20468;-63
2021/07/17 03:58:00;;;;;;;30.00;24.20;;;16.80;99.90;;;;;;4998472;28;20468;-62
2021/07/17 04:00:27;;;;;;;50.87;31.43;;;16.80;99.90;;;;;;4998367;28;20535;-63
2021/07/17 04:02:54;;;;;;;36.93;31.50;;;16.70;99.90;;;;;;4994801;28;20483;-63
2021/07/17 04:05:22;;;;;;;43.80;31.10;;;16.70;99.90;;;;;;4993795;28;21040;-63
2021/07/17 04:07:49;;;;;;;43.67;32.70;;;16.70;99.90;;;;;;4998769;28;20461;-63
2021/07/17 04:10:17;;;;;;;42.70;33.03;;;16.70;99.90;;;;;;4998387;28;20885;-63
2021/07/17 04:12:44;;;;;;;35.90;30.37;;;16.70;99.90;;;;;;4998458;28;20553;-63
2021/07/17 04:15:13;;;;;;;39.10;29.10;;;16.80;99.90;;;;;;4998194;28;20490;-62
2021/07/17 04:17:43;;;;;;;34.27;27.67;;;16.80;99.90;;;;;;4998343;28;20798;-62
2021/07/17 04:20:13;;;;;;;38.63;27.77;;;16.80;99.90;;;;;;4998111;28;20463;-62
2021/07/17 04:22:40;;;;;;;36.30;25.60;;;16.80;99.90;;;;;;4998186;28;20459;-62
2021/07/17 05:02:00;;;;;;;25.47;19.37;;;16.90;99.90;;;;;;3096496;23;20489;-63
2021/07/17 05:04:27;;;;;;;26.77;18.03;;;17.00;99.90;;;;;;4992590;28;20840;-63
2021/07/17 05:06:54;;;;;;;36.67;19.27;;;17.00;99.90;;;;;;4999009;28;20492;-63
2021/07/17 05:09:21;;;;;;;26.20;18.27;;;16.90;99.90;;;;;;4996789;28;20467;-63
2021/07/17 05:11:48;;;;;;;22.90;17.50;;;16.90;99.90;;;;;;4997633;28;20468;-63
2021/07/17 05:14:16;;;;;;;24.10;17.27;;;16.90;99.90;;;;;;4996706;28;20514;-63
2021/07/17 05:16:43;;;;;;;28.30;17.53;;;17.00;99.90;;;;;;4997773;28;20580;-63
2021/07/17 05:19:11;;;;;;;25.13;17.13;;;17.00;99.90;;;;;;4997354;28;20886;-63
2021/07/17 05:21:38;;;;;;;26.93;16.90;;;17.10;99.90;;;;;;4997539;28;20511;-63
2021/07/17 05:24:06;;;;;;;23.63;17.53;;;17.10;99.90;;;;;;4997366;28;20469;-63
2021/07/17 05:26:33;;;;;;;32.23;17.20;;;17.20;99.90;;;;;;4997571;28;21020;-63
2021/07/17 05:29:00;;;;;;;20.90;16.07;;;17.30;99.90;;;;;;4997248;28;20461;-63
2021/07/17 05:31:27;;;;;;;23.60;15.53;;;17.40;99.90;;;;;;4997227;28;20464;-63
2021/07/17 05:33:54;;;;;;;28.17;16.10;;;17.20;99.90;;;;;;4996993;28;20472;-63
2021/07/17 05:36:25;;;;;;;26.47;17.50;;;17.10;99.90;;;;;;4997400;28;20461;-63
2021/07/17 05:38:52;;;;;;;26.87;18.30;;;17.10;99.90;;;;;;4997065;28;20940;-62
2021/07/17 05:41:19;;;;;;;26.70;17.37;;;17.10;99.90;;;;;;4997715;28;20905;-62
2021/07/17 05:43:48;;;;;;;27.13;18.50;;;17.10;99.90;;;;;;4997070;28;20518;-62
2021/07/17 05:46:16;;;;;;;27.30;18.17;;;17.10;99.90;;;;;;4997203;28;20497;-62
2021/07/17 05:48:43;;;;;;;22.50;17.80;;;17.00;99.90;;;;;;4997649;28;20464;-62
2021/07/17 05:51:10;;;;;;;22.77;17.50;;;17.00;99.90;;;;;;4997167;28;20471;-62
2021/07/17 05:53:38;;;;;;;23.27;17.60;;;17.00;99.90;;;;;;4997576;28;20461;-62
2021/07/17 05:56:06;;;;;;;25.87;18.37;;;17.10;99.90;;;;;;4997316;28;20901;-62
2021/07/17 05:58:33;;;;;;;27.43;17.10;;;17.00;99.90;;;;;;4997949;28;20709;-62
2021/07/17 06:01:00;;;;;;;24.70;19.37;;;17.00;99.90;;;;;;4997305;28;20473;-62
2021/07/17 06:03:27;;;;;;;23.40;17.97;;;16.90;99.90;;;;;;4990951;28;20480;-62
2021/07/17 06:05:54;;;;;;;31.83;19.23;;;16.90;99.90;;;;;;4994516;28;20503;-62
2021/07/17 06:08:21;;;;;;;27.27;17.33;;;17.00;99.90;;;;;;4980108;28;20465;-62
2021/07/17 06:10:49;;;;;;;23.17;18.17;;;17.00;99.90;;;;;;4996787;28;20469;-62
2021/07/17 06:13:17;;;;;;;22.10;17.57;;;17.20;99.90;;;;;;4997223;28;20436;-62
2021/07/17 06:15:44;;;;;;;23.60;17.90;;;17.20;99.90;;;;;;4999191;28;20757;-62
2021/07/17 06:18:11;;;;;;;29.17;18.97;;;17.30;99.90;;;;;;5000598;28;20476;-62
2021/07/17 06:20:38;;;;;;;27.20;20.70;;;17.30;99.90;;;;;;5000625;28;20571;-62
2021/07/17 06:23:05;;;;;;;31.70;19.73;;;17.30;99.90;;;;;;5000546;28;20924;-62
2021/07/17 06:25:32;;;;;;;26.50;20.50;;;17.30;99.90;;;;;;5000757;28;20829;-62
2021/07/17 06:28:03;;;;;;;30.87;19.70;;;17.30;99.90;;;;;;5000386;28;20472;-62
2021/07/17 06:30:31;;;;;;;25.90;17.83;;;17.30;99.90;;;;;;5000258;28;20568;-62
2021/07/17 06:33:00;;;;;;;30.83;19.37;;;17.30;99.90;;;;;;5000976;28;20810;-62
2021/07/17 06:35:27;;;;;;;26.00;19.37;;;17.30;99.90;;;;;;5000568;28;20469;-62
2021/07/17 06:37:57;;;;;;;25.37;18.60;;;17.30;99.90;;;;;;5000448;28;20567;-62
2021/07/17 06:40:27;;;;;;;23.70;18.30;;;17.50;99.90;;;;;;5000908;28;20519;-62
2021/07/17 06:42:55;;;;;;;26.70;19.17;;;17.50;99.90;;;;;;5000553;28;20838;-62
2021/07/17 06:45:23;;;;;;;30.17;18.77;;;17.50;99.90;;;;;;5000492;28;20830;-62
2021/07/17 06:47:50;;;;;;;24.67;17.57;;;17.50;99.90;;;;;;4999951;28;20497;-62
2021/07/17 06:50:21;;;;;;;22.10;17.70;;;17.40;99.90;;;;;;4999848;28;20473;-62
2021/07/17 06:52:50;;;;;;;18.50;14.93;;;17.50;99.90;;;;;;5000433;28;20507;-62
2021/07/17 06:55:18;;;;;;;20.23;15.40;;;17.40;99.90;;;;;;5000277;28;20812;-62
2021/07/17 06:57:46;;;;;;;25.57;16.70;;;17.50;99.90;;;;;;4999810;28;20472;-62
2021/07/17 07:00:15;;;;;;;22.30;15.53;;;17.60;99.90;;;;;;5000242;28;20500;-62
2021/07/17 07:02:44;;;;;;;20.47;15.57;;;17.80;99.90;;;;;;4997408;28;20492;-62
2021/07/17 07:05:14;;;;;;;19.97;15.03;;;18.00;99.90;;;;;;4992083;28;20475;-62
2021/07/17 07:07:44;;;;;;;21.57;15.40;;;17.90;99.90;;;;;;4999587;28;20489;-62
2021/07/17 07:10:13;;;;;;;19.40;14.93;;;17.80;99.90;;;;;;5000154;28;20913;-62
2021/07/17 07:12:40;;;;;;;21.43;15.00;;;17.80;99.90;;;;;;4999665;28;20477;-62
2021/07/17 07:15:11;;;;;;;18.90;14.77;;;17.80;99.90;;;;;;4999513;28;20527;-62
2021/07/17 07:17:40;;;;;;;18.30;14.80;;;18.10;99.90;;;;;;4999620;28;20461;-62
2021/07/17 07:20:10;;;;;;;19.67;14.43;;;18.30;99.90;;;;;;4999301;28;20562;-62
2021/07/17 07:22:37;;;;;;;18.50;14.13;;;18.60;99.90;;;;;;4996071;28;20469;-62
2021/07/17 07:25:06;;;;;;;18.90;13.10;;;18.70;99.90;;;;;;4999509;28;20465;-62
2021/07/17 07:27:33;;;;;;;18.57;14.23;;;18.60;99.90;;;;;;4999290;28;20520;-62
2021/07/17 07:30:00;;;;;;;23.07;16.27;;;18.30;99.90;;;;;;4999064;28;20524;-62
2021/07/17 07:32:30;;;;;;;25.73;16.30;;;18.30;99.90;;;;;;4999342;28;20475;-62
2021/07/17 07:34:57;;;;;;;24.70;16.10;;;18.20;99.90;;;;;;5000062;28;20465;-62
2021/07/17 07:37:27;;;;;;;21.67;16.03;;;18.20;99.90;;;;;;4999047;28;20741;-62
2021/07/17 07:39:54;;;;;;;26.17;16.83;;;18.20;99.90;;;;;;4998889;28;20465;-62
2021/07/17 07:42:23;;;;;;;26.90;17.43;;;18.30;99.90;;;;;;4999232;28;20889;-62
2021/07/17 07:44:50;;;;;;;24.07;15.60;;;18.20;99.90;;;;;;5000094;28;20469;-62
2021/07/17 07:47:18;;;;;;;26.40;16.67;;;18.20;99.90;;;;;;4999604;28;20763;-62
2021/07/17 07:49:45;;;;;;;27.97;16.70;;;18.10;99.90;;;;;;4999905;28;20469;-62
2021/07/17 07:52:13;;;;;;;24.67;17.43;;;18.20;99.90;;;;;;5000212;28;20465;-62
2021/07/17 07:54:41;;;;;;;26.23;16.93;;;18.20;99.90;;;;;;5000567;28;20468;-62
2021/07/17 07:57:08;;;;;;;24.63;15.60;;;18.10;99.90;;;;;;5000924;28;20465;-62
2021/07/17 07:59:35;;;;;;;25.20;16.90;;;17.80;99.90;;;;;;4999374;28;20894;-62
2021/07/17 08:02:02;;;;;;;25.00;17.50;;;17.90;99.90;;;;;;4998630;28;20489;-62
2021/07/17 08:04:29;;;;;;;27.70;17.20;;;17.90;99.90;;;;;;4991174;28;20524;-62
2021/07/17 08:07:01;;;;;;;25.67;15.93;;;18.10;99.90;;;;;;4998948;28;20485;-62
2021/07/17 08:09:29;;;;;;;20.37;14.90;;;18.30;99.90;;;;;;4998505;28;20469;-62
2021/07/17 08:11:57;;;;;;;24.43;14.23;;;18.40;99.90;;;;;;4998637;28;20461;-62
2021/07/17 08:14:24;;;;;;;20.63;14.13;;;18.50;99.90;;;;;;4998550;28;20456;-62
2021/07/17 08:16:53;;;;;;;21.63;14.40;;;18.60;99.90;;;;;;4998858;28;20457;-62
2021/07/17 08:19:23;;;;;;;25.87;15.00;;;18.60;99.90;;;;;;4999540;28;20460;-62
2021/07/17 08:21:53;;;;;;;25.13;14.60;;;18.70;99.90;;;;;;4993989;28;20439;-62
2021/07/17 08:24:20;;;;;;;26.00;12.93;;;18.40;99.90;;;;;;4999581;28;20920;-62
2021/07/17 08:26:48;;;;;;;20.30;14.57;;;18.60;99.90;;;;;;4998835;28;20500;-62
2021/07/17 08:29:16;;;;;;;17.03;13.33;;;18.80;99.90;;;;;;4998788;28;20823;-62
2021/07/17 08:31:43;;;;;;;28.07;14.23;;;18.60;99.90;;;;;;4997894;28;20464;-62
2021/07/17 08:34:10;;;;;;;19.90;13.70;;;18.60;99.90;;;;;;4998203;28;20464;-61
2021/07/17 08:36:37;;;;;;;21.30;12.30;;;18.90;99.90;;;;;;4998260;28;20472;-61
2021/07/17 09:55:04;;;;;;;22.10;13.63;;;20.00;99.90;;;;;;4450758;23;20491;-60
2021/07/17 09:57:31;;;;;;;26.03;14.40;;;19.90;99.90;;;;;;5001443;28;20457;-61
2021/07/17 10:00:04;;;;;;;21.40;13.30;;;20.90;99.90;;;;;;5000967;28;20527;-61
2021/07/17 10:02:35;;;;;;;18.63;12.27;;;21.80;99.90;;;;;;4999760;28;20475;-61
2021/07/17 10:05:03;;;;;;;15.03;11.40;;;23.10;99.90;;;;;;4993593;28;20476;-62
2021/07/17 10:07:30;;;;;;;14.47;11.50;;;22.60;99.90;;;;;;5001065;28;20492;-62
2021/07/17 10:09:59;;;;;;;14.00;10.67;;;22.30;99.90;;;;;;5000442;28;20848;-62
2021/07/17 10:12:33;;;;;;;19.63;11.57;;;22.90;99.90;;;;;;5005258;28;20502;-62
2021/07/17 10:15:01;;;;;;;16.03;10.30;;;23.40;99.90;;;;;;5007968;28;20554;-62
2021/07/17 11:29:06;;;;;;;12.80;8.90;;;25.50;97.00;;;;;;5017819;23;20488;-59
2021/07/17 11:31:53;;;;;;;9.07;7.80;;;24.60;99.90;;;;;;5016686;28;20471;-58
2021/07/17 11:34:49;;;;;;;11.23;8.57;;;24.60;99.90;;;;;;4985705;28;20493;-59
2021/07/17 11:37:24;;;;;;;15.20;8.50;;;25.30;99.90;;;;;;4979306;28;20520;-56
2021/07/17 11:40:00;;;;;;;10.80;7.60;;;25.70;98.80;;;;;;4995678;28;20460;-59
2021/07/17 11:42:27;;;;;;;7.77;6.50;;;26.20;98.40;;;;;;4998476;28;20559;-58
2021/07/17 11:44:58;;;;;;;10.57;6.07;;;26.30;95.00;;;;;;5005641;28;20872;-59
2021/07/17 11:47:29;;;;;;;8.33;6.00;;;26.70;93.40;;;;;;5018015;28;20547;-59
2021/07/17 11:49:59;;;;;;;12.20;6.40;;;27.10;89.60;;;;;;5018648;28;20495;-59
2021/07/17 11:52:29;;;;;;;7.90;5.57;;;26.90;91.00;;;;;;5018678;28;20464;-59
2021/07/17 11:54:57;;;;;;;10.23;5.77;;;27.80;87.10;;;;;;5018591;28;20518;-58
2021/07/17 11:57:28;;;;;;;8.40;6.20;;;28.40;85.40;;;;;;5018643;28;20551;-59
2021/07/17 12:00:15;;;;;;;6.10;5.20;;;27.50;81.40;;;;;;5018736;28;20815;-60
2021/07/17 12:02:52;;;;;;;6.90;5.07;;;27.20;84.00;;;;;;5013785;28;20476;-59
2021/07/17 12:05:20;;;;;;;9.13;5.23;;;27.60;82.80;;;;;;4993545;28;20465;-58
2021/07/17 12:07:48;;;;;;;6.27;5.30;;;28.40;79.70;;;;;;4998086;28;20493;-60
2021/07/17 12:10:20;;;;;;;5.83;5.17;;;29.00;76.30;;;;;;4980107;28;20466;-57
2021/07/17 12:12:49;;;;;;;6.00;5.13;;;27.40;77.00;;;;;;4995585;28;20912;-59
2021/07/17 12:15:21;;;;;;;6.47;5.10;;;27.80;78.80;;;;;;5003428;28;20472;-58
2021/07/17 12:17:57;;;;;;;6.23;5.23;;;27.50;77.60;;;;;;5016555;28;20464;-59
2021/07/17 12:20:26;;;;;;;11.03;5.70;;;27.90;77.40;;;;;;5013609;28;20460;-58
2021/07/17 12:23:07;;;;;;;9.40;6.37;;;27.60;76.90;;;;;;4998206;28;20469;-58
2021/07/17 12:25:36;;;;;;;7.57;5.10;;;28.10;76.00;;;;;;4998634;28;20468;-59
2021/07/17 12:28:17;;;;;;;6.00;5.40;;;27.80;74.40;;;;;;4998388;28;20535;-54
2021/07/17 12:30:48;;;;;;;7.27;4.90;;;27.60;75.70;;;;;;5017671;28;20468;-57
2021/07/17 12:33:39;;;;;;;6.90;5.77;;;27.00;75.40;;;;;;5018071;28;20807;-60
2021/07/17 12:36:20;;;;;;;7.13;4.70;;;27.40;77.70;;;;;;5018275;28;20464;-61
2021/07/17 12:38:49;;;;;;;5.53;4.93;;;27.60;77.50;;;;;;5012607;28;20456;-61
2021/07/17 12:41:19;;;;;;;7.80;5.03;;;28.20;75.50;;;;;;5008600;28;20459;-60
2021/07/17 12:43:48;;;;;;;6.53;5.13;;;28.00;73.80;;;;;;5016518;28;20839;-57
2021/07/17 12:46:19;;;;;;;6.87;4.40;;;28.80;72.20;;;;;;4996834;28;20516;-58
2021/07/17 12:48:56;;;;;;;5.07;4.57;;;29.20;70.10;;;;;;5017574;28;20503;-57
2021/07/17 12:51:28;;;;;;;7.00;4.47;;;28.00;69.90;;;;;;5015805;28;20465;-59
2021/07/17 12:53:57;;;;;;;5.20;4.03;;;28.20;73.30;;;;;;5017718;28;20490;-58
2021/07/17 12:56:44;;;;;;;5.80;4.50;;;28.60;69.90;;;;;;5001527;28;20464;-58
2021/07/17 12:59:14;;;;;;;7.30;4.60;;;29.00;68.50;;;;;;4995004;28;20484;-56
2021/07/17 13:01:45;;;;;;;5.50;4.47;;;30.00;67.50;;;;;;4998026;28;20519;-59
2021/07/17 13:04:19;;;;;;;5.93;4.90;;;30.00;65.60;;;;;;4987403;28;20922;-56
2021/07/17 13:06:57;;;;;;;5.70;5.10;;;28.20;67.10;;;;;;4993853;28;20467;-58
2021/07/17 13:09:28;;;;;;;4.87;4.33;;;28.20;69.50;;;;;;4997375;28;20433;-56
2021/07/17 13:11:55;;;;;;;6.47;4.40;;;28.00;72.30;;;;;;5001683;28;20815;-58
2021/07/17 13:14:24;;;;;;;5.07;4.40;;;28.60;67.80;;;;;;4998908;28;20449;-58
2021/07/17 13:16:53;;;;;;;5.33;4.77;;;28.60;69.20;;;;;;5006508;28;20491;-55
2021/07/17 13:19:24;;;;;;;4.70;4.20;;;28.70;68.50;;;;;;4997463;28;20821;-58
2021/07/17 13:21:52;;;;;;;4.70;4.23;;;28.90;67.30;;;;;;5004441;28;20496;-58
2021/07/17 13:24:21;;;;;;;6.37;4.87;;;28.40;70.30;;;;;;4998830;28;20467;-57
2021/07/17 13:26:55;;;;;;;5.80;4.97;;;28.20;70.60;;;;;;5001202;28;20937;-58
2021/07/17 13:29:24;;;;;;;6.33;4.07;;;27.80;71.60;;;;;;5010301;28;20460;-58
2021/07/17 13:31:56;;;;;;;8.03;4.70;;;28.80;71.50;;;;;;5020886;28;20470;-59
2021/07/17 13:34:25;;;;;;;11.53;4.07;;;29.60;67.80;;;;;;5021600;28;20894;-57
2021/07/17 13:36:58;;;;;;;6.37;4.03;;;29.10;70.60;;;;;;5020862;28;20530;-59
2021/07/17 13:39:26;;;;;;;7.60;4.43;;;29.40;67.40;;;;;;4996311;28;20466;-58
2021/07/17 13:42:08;;;;;;;5.00;3.70;;;28.90;69.70;;;;;;4986804;28;20456;-58
2021/07/17 13:44:35;;;;;;;9.20;4.80;;;28.50;69.30;;;;;;4991165;28;20472;-58
2021/07/17 13:47:15;;;;;;;5.60;4.20;;;28.50;72.30;;;;;;4983597;28;20478;-59
2021/07/17 13:49:43;;;;;;;5.70;4.20;;;28.20;69.60;;;;;;5001271;28;20466;-58
2021/07/17 13:52:35;;;;;;;6.43;4.37;;;28.00;71.90;;;;;;4983620;28;20563;-58
2021/07/17 13:55:06;;;;;;;4.20;3.80;;;28.20;72.10;;;;;;5000737;28;20489;-60
2021/07/17 13:57:39;;;;;;;6.10;4.00;;;28.80;69.50;;;;;;5001212;28;20460;-56
2021/07/17 14:00:12;;;;;;;4.27;3.80;;;28.40;70.20;;;;;;5001414;28;20953;-58
2021/07/17 14:02:44;;;;;;;3.70;3.40;;;28.10;68.20;;;;;;4999492;28;20461;-59
2021/07/17 14:05:13;;;;;;;6.23;3.90;;;28.00;69.30;;;;;;4984154;28;20761;-59
2021/07/17 14:07:41;;;;;;;4.83;4.10;;;27.80;71.00;;;;;;4986053;28;20542;-59
2021/07/17 14:10:09;;;;;;;4.73;4.00;;;28.50;72.40;;;;;;5005793;28;20465;-57
2021/07/17 14:12:37;;;;;;;4.40;4.00;;;28.70;70.10;;;;;;5013817;28;20468;-57
2021/07/17 14:15:06;;;;;;;3.53;3.23;;;29.50;71.10;;;;;;5020811;28;20459;-57
2021/07/17 14:17:34;;;;;;;7.00;4.10;;;29.80;66.40;;;;;;5014269;28;20519;-59
2021/07/17 14:20:03;;;;;;;4.67;3.80;;;29.70;64.00;;;;;;4983220;28;20905;-59
2021/07/17 14:22:30;;;;;;;5.47;3.50;;;29.40;63.10;;;;;;5001739;28;20979;-57
2021/07/17 14:24:57;;;;;;;5.20;4.07;;;28.80;66.10;;;;;;5000618;28;20929;-58
2021/07/17 14:27:24;;;;;;;4.20;3.80;;;28.80;67.90;;;;;;5016542;28;20502;-57
2021/07/17 14:29:51;;;;;;;4.80;4.37;;;29.00;67.40;;;;;;5020671;28;20954;-59
2021/07/17 14:32:23;;;;;;;4.90;3.40;;;29.80;66.90;;;;;;5020250;28;20526;-59
2021/07/17 14:34:50;;;;;;;3.83;3.30;;;29.40;65.90;;;;;;5019283;28;20468;-59
2021/07/17 14:37:21;;;;;;;4.10;3.60;;;28.80;65.70;;;;;;5019593;28;20467;-58
2021/07/17 14:39:48;;;;;;;4.23;3.90;;;28.80;66.20;;;;;;4989824;28;20516;-59
2021/07/17 14:42:15;;;;;;;5.40;3.10;;;28.80;64.20;;;;;;4981073;28;20461;-58
2021/07/17 14:44:43;;;;;;;4.80;4.27;;;29.10;65.80;;;;;;5017326;28;20456;-58
2021/07/17 14:47:11;;;;;;;4.60;3.13;;;29.10;65.30;;;;;;5015853;28;20906;-57
2021/07/17 14:49:38;;;;;;;6.40;3.80;;;29.30;64.90;;;;;;5000414;28;20989;-55
2021/07/17 14:52:06;;;;;;;4.57;3.37;;;29.40;64.30;;;;;;4999962;28;20461;-59
2021/07/17 14:54:35;;;;;;;4.43;4.03;;;29.00;66.00;;;;;;5000360;28;20461;-56
2021/07/17 14:57:02;;;;;;;4.83;3.53;;;28.80;64.30;;;;;;5000130;28;20461;-59
2021/07/17 14:59:30;;;;;;;4.30;3.90;;;29.10;63.60;;;;;;4982518;28;20966;-58
2021/07/17 15:02:01;;;;;;;4.30;3.90;;;29.10;64.20;;;;;;5000101;28;20773;-57
2021/07/17 15:04:29;;;;;;;5.70;3.63;;;28.90;64.40;;;;;;4992050;28;20988;-54
2021/07/17 15:06:57;;;;;;;4.60;3.80;;;28.40;65.50;;;;;;4999791;28;20504;-54
2021/07/17 15:09:25;;;;;;;5.20;3.17;;;28.00;66.50;;;;;;5000078;28;20588;-59
2021/07/17 15:11:54;;;;;;;4.10;3.37;;;28.10;69.10;;;;;;5002447;28;20461;-58
2021/07/17 15:14:21;;;;;;;6.00;3.03;;;28.70;67.60;;;;;;5008029;28;20711;-59
2021/07/17 15:16:49;;;;;;;4.40;3.60;;;29.20;65.90;;;;;;5009674;28;20804;-59
2021/07/17 15:19:19;;;;;;;3.90;3.20;;;29.30;65.80;;;;;;5017404;28;20456;-58
2021/07/17 15:21:47;;;;;;;4.00;3.60;;;28.60;67.40;;;;;;4985870;28;20457;-57
2021/07/17 15:24:14;;;;;;;4.23;3.83;;;27.90;67.40;;;;;;5014017;28;20746;-57
2021/07/17 15:26:44;;;;;;;4.10;3.67;;;27.50;71.10;;;;;;5019188;28;20781;-57
2021/07/17 15:29:16;;;;;;;5.13;3.67;;;27.80;70.00;;;;;;5012364;28;21012;-58
2021/07/17 15:31:45;;;;;;;6.70;3.87;;;27.90;69.40;;;;;;4982036;28;20469;-56
2021/07/17 15:34:16;;;;;;;3.17;2.83;;;27.60;69.50;;;;;;4999795;28;20460;-54
2021/07/17 15:36:47;;;;;;;3.70;3.40;;;27.40;69.80;;;;;;4998898;28;20559;-55
2021/07/17 15:39:16;;;;;;;5.33;3.80;;;28.00;70.10;;;;;;4998946;28;20456;-58
2021/07/17 15:41:43;;;;;;;3.70;2.60;;;27.80;69.90;;;;;;4998184;28;20948;-57
2021/07/17 15:44:12;;;;;;;3.93;3.47;;;27.80;67.90;;;;;;5001171;28;20464;-56
2021/07/17 15:46:42;;;;;;;6.27;3.63;;;28.30;67.80;;;;;;5007011;28;20464;-57
2021/07/17 15:49:11;;;;;;;4.30;3.60;;;28.00;67.30;;;;;;4979716;28;20485;-57
2021/07/17 15:51:40;;;;;;;4.90;3.60;;;28.30;68.80;;;;;;4997679;28;20453;-58
2021/07/17 15:54:08;;;;;;;3.73;3.43;;;28.40;66.70;;;;;;4998809;28;20902;-57
2021/07/17 15:56:37;;;;;;;8.70;3.40;;;28.40;66.90;;;;;;4999157;28;20469;-58
2021/07/17 15:59:04;;;;;;;3.73;3.10;;;28.10;64.40;;;;;;4999313;28;20788;-55
2021/07/17 16:01:35;;;;;;;6.93;3.90;;;27.70;64.80;;;;;;4999139;28;20465;-57
2021/07/17 16:04:03;;;;;;;3.80;2.90;;;27.50;67.70;;;;;;4990963;28;20540;-58
2021/07/17 16:06:30;;;;;;;3.77;3.47;;;27.00;68.00;;;;;;4990367;28;20870;-57
2021/07/17 16:08:57;;;;;;;4.97;3.30;;;26.80;69.90;;;;;;4995028;28;20491;-57
2021/07/17 16:11:24;;;;;;;7.00;3.10;;;26.80;69.50;;;;;;4980206;28;20466;-57
2021/07/17 16:13:52;;;;;;;4.60;3.20;;;27.20;70.00;;;;;;5007893;28;20474;-57
2021/07/17 16:16:25;;;;;;;4.00;3.50;;;26.80;70.40;;;;;;5004871;28;20434;-58
2021/07/17 16:18:54;;;;;;;3.20;2.90;;;26.90;71.30;;;;;;5018719;28;20462;-55
2021/07/17 16:21:21;;;;;;;4.07;3.37;;;27.00;68.80;;;;;;5005983;28;20464;-58
2021/07/17 16:23:49;;;;;;;6.03;3.20;;;27.40;70.40;;;;;;4999014;28;20793;-55